• Join FlightAware (Why Join?)
  • Login
  • US Flag 
11:07PM EDT


 

Airport Tracker/Info


-or-


 

Live Flight TrackerFlight Track Log ✈ ASQ6115 ✈ 21-Apr-2013 ✈ KMSN - KORD

Flight Track Log - Related Links

Times and Time Zones

All times are in EDT time to prevent confusion due to time zone crossing. See the ASQ6115 flight status page for this flight to view local times or setup timezone preferences in your user account.

Time Position Orientation Groundspeed Altitude Reporting Facility
EDT Latitude Longitude Course Direction KTS MPH feet Rate Location/Type
09:00PM 43.0361 -89.3025 162° South 187 215 6,500  Level Chicago Center
09:01PM 42.9459 -89.2517 164° South  Level FlightAware Approximate
09:01PM 42.9650 -89.2856 170° South 249 287 9,500  Level Chicago Center
09:02PM 42.8824 -89.2324 144° Southeast  Level FlightAware Approximate
09:02PM 42.8925 -89.2728 173° South 262 302 11,400  Level Chicago Center
09:03PM 42.8219 -89.2017 166° South  Level FlightAware Approximate
09:03PM 42.8067 -89.2289 159° South 324 373 12,300  Level Chicago Center
09:04PM 42.7574 -89.1852 170° South  Level FlightAware Approximate
09:04PM 42.7106 -89.1375 145° Southeast 377 434 13,000  Level Chicago Center
09:05PM 42.6489 -89.0206 126° Southeast 383 441 13,000  Level Chicago Center
09:06PM 42.5886 -88.9064 126° Southeast 377 434 13,000 -60 Level Chicago Center
09:07PM 42.5286 -88.7917 125° Southeast 374 430 12,900 -540 Descending Chicago Center
09:08PM 42.4817 -88.7036 126° Southeast 306 352 11,900 -1,620 Descending Chicago Center
09:09PM 42.4264 -88.6031 127° Southeast 289 333 9,600 -1,440 Descending Chicago Center
09:10PM 42.3797 -88.5158 126° Southeast 287 330 9,000 -300 Descending Chicago Center
09:11PM 42.3328 -88.4331 127° Southeast 281 323 9,000 -120 Level Chicago Center
09:12PM 42.2886 -88.3506 126° Southeast 285 328 8,800 -600 Descending Chicago Center
09:13PM 42.2425 -88.2708 128° Southeast 276 318 7,800 -1,260 Descending Chicago Center
09:14PM 42.1878 -88.1769 128° Southeast 269 310 6,300 -1,440 Descending Chicago Center
09:15PM 42.1414 -88.0994 129° Southeast 267 307 4,900 -1,500 Descending Chicago Center
09:16PM 42.1000 -88.0667 150° Southeast 256 295 4,000 -1,500 Descending Chicago TRACON
09:17PM 42.0667 -88.0167 132° Southeast 186 214 2,500 -1,080 Descending Chicago TRACON
09:18PM 42.0333 -87.9833 143° Southeast 115 132 1,700 -780 Descending Chicago TRACON